Historyczne dane pomiarowe

Dodano dane terminowe – wersja testowa.

Dane z okresu 1951-2019

Wersja bazy: 1.34 [2019-03-16, lista zmian], aktualizacja planowana na 2019-04-15

Dane meteo z obszaru Polski uzyskane na podstawie danych udostępnionych przez Instytut Meteorologii i Gospodarki Wodnej – Państwowy Instytut Badawczy.

 

Wybierz Datę:    

       

TemperaturaWilgotnośćZachmurzenieWiatrCiśnienieWidzialnośćZjawiska
 Data    tng td wb rh cc ccl cl cm ch dir g1 g2 mslp ppp      
1994-06-16 00:00:00 8.0--- 4.7 6.479wxwxwx2wx--1012.2 997.0 0.0---wx
1994-06-16 01:00:00 7.5--- 4.6 6.182wxwxwx2wx--1011.5 996.3----wx
1994-06-16 02:00:00 7.9--- 4.8 6.481wxwxwx2wx--1011.3 996.1----wx
1994-06-16 03:00:00 10.4--- 5.1 7.870wxwxwx3wx--1010.5 995.5----wx
1994-06-16 04:00:00 11.6--- 6.1 8.869wxwxwx4wx--1010.3 995.3----wx
1994-06-16 05:00:00 12.3--- 6.2 9.267wxwxwx4wx--1009.8 994.9----wx
1994-06-16 06:00:00 12.9--- 7.0 9.867wxwxwxwx4wx--1009.7 994.8 0.0---wx
1994-06-16 07:00:00 14.0--- 7.2 10.463wxwxwx5wx--1009.6 994.8----wx
1994-06-16 08:00:00 10.4--- 9.7 10.095wxwxwx5wx--1011.0 996.0----wx
1994-06-16 09:00:00 11.2--- 9.7 10.491wxwxwxwx5wx--1010.9 995.9----wx
1994-06-16 10:00:00 13.8--- 8.2 10.869wxwxwx6wx--1010.2 995.4----wx
1994-06-16 11:00:00 13.7--- 9.1 11.274wxwxwxwx5wx--1010.3 995.4----wx
1994-06-16 12:00:00 14.6--- 8.7 11.468wxwxwxwx6wx--1010.1 995.3 0.0---wxw1
1994-06-16 13:00:00 14.0--- 8.2 10.968wxwxwx5wx--1009.8 995.0----wx
1994-06-16 14:00:00 14.9--- 7.6 11.062wxwxwxwx5wx--1009.7 994.9----wx
1994-06-16 15:00:00 12.0--- 9.2 10.583wxwxwx4wx--1009.8 994.9----wxw1
1994-06-16 16:00:00 11.3--- 9.6 10.490wxwxwx2wx--1010.1 995.1----wxw1
1994-06-16 17:00:00 11.5--- 9.7 10.589wxwxwxwx1wx--1009.8 994.8----wxw1
1994-06-16 18:00:00 11.1--- 9.6 10.391wxwxwxwx3wx--1009.6 994.6 1.8---wxw1
1994-06-16 19:00:00 10.6--- 9.5 10.093wxwxwxwx3wx--1009.7 994.7----wxw1
1994-06-16 20:00:00 9.9--- 9.0 9.494wxwxwxwx3wx--1009.7 994.7----wxw1
1994-06-16 21:00:00 9.6--- 8.8 9.295wxwxwx3wx--1010.0 994.9----wx
1994-06-16 22:00:00 9.2--- 8.4 8.895wxwxwx4wx--1010.2 995.1----wx
1994-06-16 23:00:00 9.6--- 8.7 9.194wxwxwx5wx--1010.4 995.3----wx

 

Źródłem pochodzenia danych jest Instytut Meteorologii i Gospodarki Wodnej – Państwowy Instytut Badawczy. Dane Instytutu Meteorologii i Gospodarki Wodnej – Państwowego Instytutu Badawczego zostały przetworzone.

Dane źródłowe można odnaleźć na stronie https://dane.imgw.pl